메인 페이지
METAR-TAF:

METAR-TAF

공항 :

엘알토 국제공항

라파스, 볼리비아

위도: 16-31S, 경도: 068-11W, 고도: 4058m

현재 날씨관측

예보는 15분 전, 12:33시(UTC)에 발표되었습니다.
9kt
온도 2°C
습도 93%
기압 1037 hPa
시정: 1100m
고도 200ft 상공 구름 조금
고도 700ft 상공 구름 보통
박무

METAR: SLLP 241233Z 10009KT 1100 BR FEW002 SCT007 02/01 Q1037

시각: 08:48 (12:48 UTC)

예보

예보는 2 시간 13분 전, 10:35시(UTC)에 발표되었습니다.
예보 대상 시간: 24일 12시부터 25일 12시까지 (UTC)
북동5kt
시정: 8000m
고도 1500ft 상공 구름 조금
전환 중
24일 15시부터 24일 17시까지 (UTC)
10kt
일시적
24일 19시부터 24일 23시까지 (UTC)
고도 1700ft 상공 구름 조금
고도 2000ft 상공 구름 조금, 적란운.
전환 중
24일 23시부터 25일 01시까지 (UTC)
북동5kt
일시적
25일 04시부터 25일 08시까지 (UTC)
시정: 3000m
시계 내 안개

TAF: SLLP 241035Z 2412/2512 05005KT 8000 FEW015 TX15/2420Z TNM05/2510Z BECMG 2415/2417 26010KT TEMPO 2419/2423 FEW017 FEW020CB BECMG 2423/2501 04005KT TEMPO 2504/2508 3000E VCFG

4,000개 이상의 공항 관측 자료 및 예보 (METAR 및 TAF 보고).

지도상에서 검색 가능한 기상관측소가 노란 점과 빨간 점으로 표시되어 있습니다.

기상관측소 명을 보려면 표시 위로 마우스를 이동하세요.

날씨 관측과 예보를 보려면 클릭하세요.

지도 변경 : 확대하려면 엑스 표시가 있는 녹색 버튼, 축소하려면 빼기 표시가 있는 녹색 버튼, 다음 페이지의 지도를 보려면 녹색 화살표를 클릭하세요.


METAR-TAF: